Como, TN

9:52 AM CDT on October 31, 2014 (GMT -0500)
Campbell Army Air Field | Change Station
CLOSE
Current Station
Airport
Location: Fort Campbell,
Elevation: 571 ft
Nearby Weather Stations
Active Advisory: Freeze Warning, Freeze Watch

Elev 571 ft 36.67 °N, 87.50 °W | Updated 18 minutes ago

Overcast
Overcast
50 °F
Feels Like 50 °F
N
7
Wind Variable Wind from NNW

Today
High -- | Low -- °F
--% Chance of Precip.
Yesterday
High -- | Low -- °F
Precip. -- in
7:15 AM 5:58 PM
First Quarter, 56% visible
Pressure 30.06 in
Visibility 5.0 miles
Clouds Overcast 2900 ft
Dew Point 50 °F
Humidity 100%
Rainfall 0.05 in
Snow Depth Not available.
UV 1 out of 12
Pollen .90 out of 12
Air Quality Not available.
Flu Activity Not available.
SPECI KHOP 311434Z AUTO 33006KT 5SM BR OVC029 10/10 A3006 RMK AO2

More Conditions Fewer Conditions

Pressure 30.06 in
Visibility 5.0 miles
Clouds Overcast 2900 ft
Dew Point 50 °F
Humidity 100%
Rainfall 0.05 in
Snow Depth Not available.
UV 1 out of 12
Pollen .90 out of 12
Air Quality Not available.
Flu Activity Not available.
SPECI KHOP 311434Z AUTO 33006KT 5SM BR OVC029 10/10 A3006 RMK AO2

More Conditions Fewer Conditions

10-Day Weather Forecast

Almanac

Astronomy

Oct. 31, 2014 Rise Set
Actual Time
Civil Twilight
Nautical Twilight
Astronomical Twilight
Moon
Length of Visible Light
Length of Day
Tomorrow will be .
, % of the Moon is Illuminated

Today's Extremes

State Highs State Lows

Community

WunderPhotos

Upload Photos

1,766,625 photos uploaded!

WunderBlogs® & News

Nearby

Air Quality

  Air Quality AQ Index Pollutant
Not available.

Snow Depth

Station Depth Elevation

Earthquake Activity

City Distance Mag. Time & Date
Minimum magnitude displayed is 2.5.

Coastal Water Temperatures

Place Temperature

Nearby Weather Stations